Decoded Metar for KPGV (PITT GREENVILLE in NC, USA) (IATA:PGV) | Meteo·Mobile Aviation Weather
aviador You're here:

KPGV Decoded Metar

PITT GREENVILLE in NC, USA
Report Time2019-03-25 13:20:00
UTC Time2019-03-25 13:37:15
Flight Rules vfr VFR
Wind220° at 06 kt
W.Decomp.*RWY 20: 5.2 kt HW 2.9 kt RCW
RWY 26: 5.1 kt HW 3.1 kt LCW
RWY 15: 1.1 kt HW 5.9 kt RCW
W.Rank220° ranks 2
Current wind is below 220° avg. (6.9)
Visibility9999 m
Phenomena:N/A
Clouds:Scattered 023 Hf
Expected CloudBase > 2,000 ft AGL from Temp-Dew spread
CeilingNone
Temp16°C (ISA +1)
Dew Point11°C (72% RH)
AAT14.2°C
QNH1019 hPa
Density Alt125 ft
Elevation26 ft
Report Wrong Elevation
Raw Report
METAR KPGV 251320Z AUTO 22006KT 10SM SCT023 16/11 A3009 RMK AO2=

Extra information for KPGV:More info

Metar Taf Metar & Taf Last 4 Metars F.Rules Stats Wind Profile Meteogram Temp Stats Airport Information Weather charts Add Link Nearby VenuesMetar ALERT Operation Metar Decoded Social comments

AIRNAV info for KPGV